Time;durP1;ratioP1;P1;durP2;ratioP2;P2;SDS_P1;SDS_P2;PMS_P1;PMS_P2;Temp;Humidity;BMP_temperature;BMP_pressure;BME280_temperature;BME280_humidity;BME280_pressure;Samples;Min_cycle;Max_cycle;Signal;HPM_P1;HPM_P2
2023/02/16 00:01:46;;;;;;;;;71.75;57.50;;;;;6.42;100.00;102205.94;5142986;27;45356;-76
2023/02/16 00:04:19;;;;;;;;;67.00;53.75;;;;;6.41;100.00;102207.72;5142831;27;45332;-76
2023/02/16 00:06:44;;;;;;;;;66.50;52.25;;;;;6.42;100.00;102206.78;5142804;27;45306;-76
2023/02/16 00:09:10;;;;;;;;;66.00;53.25;;;;;6.40;100.00;102205.19;5142562;27;45410;-76
2023/02/16 00:14:25;;;;;;;;;64.25;52.00;;;;;6.44;100.00;102222.53;5142381;27;45340;-75
2023/02/16 00:16:51;;;;;;;;;64.75;53.75;;;;;6.42;100.00;102214.72;5142394;27;45152;-76
2023/02/16 00:19:29;;;;;;;;;62.25;51.75;;;;;6.41;100.00;102205.06;5120323;27;48668;-76
2023/02/16 00:21:57;;;;;;;;;65.50;52.25;;;;;6.44;100.00;102204.03;5135854;27;45388;-75
2023/02/16 00:24:25;;;;;;;;;67.75;55.00;;;;;6.44;100.00;102199.56;5142442;27;45344;-76
2023/02/16 00:26:51;;;;;;;;;64.50;53.00;;;;;6.41;100.00;102201.63;5142159;27;45335;-75
2023/02/16 00:29:23;;;;;;;;;45.75;37.25;;;;;6.38;100.00;102194.72;5142195;27;45396;-76
2023/02/16 00:31:49;;;;;;;;;63.50;50.00;;;;;6.39;100.00;102185.88;5141989;27;45368;-75
2023/02/16 00:34:29;;;;;;;;;62.25;50.75;;;;;6.41;100.00;102193.69;5142546;27;45364;-75
2023/02/16 00:36:55;;;;;;;;;69.00;54.50;;;;;6.39;100.00;102196.44;5123188;27;46348;-75
2023/02/16 00:39:23;;;;;;;;;63.25;52.00;;;;;6.39;100.00;102201.72;5142199;27;46353;-75
2023/02/16 00:41:49;;;;;;;;;63.75;52.75;;;;;6.41;100.00;102198.97;5140576;27;45583;-75
2023/02/16 00:44:18;;;;;;;;;65.75;53.75;;;;;6.41;100.00;102198.97;5123348;27;45473;-76
2023/02/16 00:46:45;;;;;;;;;61.75;51.00;;;;;6.41;100.00;102196.34;5141932;27;45466;-76
2023/02/16 00:49:14;;;;;;;;;60.00;47.50;;;;;6.39;100.00;102193.78;5142009;27;45359;-75
2023/02/16 00:51:39;;;;;;;;;68.25;54.00;;;;;6.32;100.00;102174.06;5141670;27;46429;-75
2023/02/16 00:54:05;;;;;;;;;64.00;52.25;;;;;6.35;100.00;102186.19;5123341;27;45384;-76
2023/02/16 00:56:31;;;;;;;;;63.75;52.00;;;;;6.38;100.00;102186.81;5141742;27;45326;-76
2023/02/16 00:58:59;;;;;;;;;67.25;54.25;;;;;6.37;100.00;102187.78;5141529;27;46204;-76
2023/02/16 01:01:29;;;;;;;;;64.75;51.25;;;;;6.31;100.00;102190.84;5141767;27;45483;-75
2023/02/16 01:03:55;;;;;;;;;77.25;62.50;;;;;6.30;100.00;102191.81;5142065;27;45345;-75
2023/02/16 01:11:57;;;;;;;;;70.50;56.25;;;;;6.23;100.00;102183.50;5141820;27;45226;-76
2023/02/16 01:14:23;;;;;;;;;68.75;56.25;;;;;6.20;100.00;102173.16;5141392;27;45234;-76
2023/02/16 01:16:48;;;;;;;;;61.50;50.75;;;;;6.12;100.00;102173.69;5141703;27;45245;-76
2023/02/16 01:19:13;;;;;;;;;68.75;53.00;;;;;6.15;100.00;102178.75;5122648;27;46815;-75
2023/02/16 01:21:39;;;;;;;;;67.25;55.25;;;;;6.13;100.00;102169.25;5141621;27;45301;-76
2023/02/16 01:24:05;;;;;;;;;68.00;54.00;;;;;6.11;100.00;102168.53;5139916;27;45485;-76
2023/02/16 01:26:32;;;;;;;;;69.00;54.25;;;;;6.11;100.00;102174.63;5141471;27;45351;-76
2023/02/16 01:28:57;;;;;;;;;47.00;39.75;;;;;6.08;100.00;102166.97;5140981;27;46519;-76
2023/02/16 01:31:23;;;;;;;;;69.75;56.75;;;;;6.09;100.00;102167.78;5122939;27;45435;-76
2023/02/16 01:33:49;;;;;;;;;69.00;54.75;;;;;6.04;100.00;102168.97;5141141;27;45351;-76
2023/02/16 01:36:35;;;;;;;;;63.25;52.00;;;;;6.09;100.00;102173.91;5141441;27;45518;-76
2023/02/16 01:39:00;;;;;;;;;64.50;53.25;;;;;6.04;100.00;102162.81;5128452;27;45322;-76
2023/02/16 01:41:44;;;;;;;;;67.00;54.75;;;;;6.07;100.00;102175.81;5141158;27;45276;-76
2023/02/16 01:44:26;;;;;;;;;71.75;58.25;;;;;6.01;100.00;102171.78;5122430;27;45526;-76
2023/02/16 01:46:54;;;;;;;;;69.25;55.00;;;;;6.03;100.00;102169.88;5122093;27;46307;-76
2023/02/16 01:49:21;;;;;;;;;65.00;52.00;;;;;6.03;100.00;102176.94;5141054;27;46124;-76
2023/02/16 01:52:00;;;;;;;;;62.50;51.25;;;;;6.01;100.00;102174.41;5122287;27;45197;-76
2023/02/16 01:54:39;;;;;;;;;64.75;50.00;;;;;5.99;100.00;102172.84;5140842;27;45377;-76
2023/02/16 01:57:11;;;;;;;;;64.00;52.25;;;;;5.95;100.00;102156.38;5140922;27;45429;-76
2023/02/16 01:59:42;;;;;;;;;58.00;48.75;;;;;5.97;100.00;102175.59;5140397;27;46152;-76
2023/02/16 02:02:15;;;;;;;;;59.50;49.25;;;;;5.96;100.00;102168.63;5142225;27;45352;-76
2023/02/16 02:08:12;;;;;;;;;58.75;49.00;;;;;5.91;100.00;102147.00;5144527;27;45413;-76
2023/02/16 02:10:40;;;;;;;;;59.25;48.25;;;;;5.91;100.00;102141.72;5142968;27;46192;-76
2023/02/16 02:13:51;;;;;;;;;55.75;46.25;;;;;5.91;100.00;102131.16;5144128;27;45239;-76
2023/02/16 02:16:19;;;;;;;;;57.50;47.75;;;;;5.91;100.00;102133.81;5094314;27;45497;-76
2023/02/16 02:18:44;;;;;;;;;61.00;48.25;;;;;5.92;100.00;102128.41;5144152;27;45449;-76
2023/02/16 02:24:38;;;;;;;;;60.00;49.00;;;;;5.94;100.00;102125.66;5144146;27;45405;-76
2023/02/16 02:27:39;;;;;;;;;61.25;50.25;;;;;5.98;100.00;102124.50;5138472;27;45329;-76
2023/02/16 02:30:24;;;;;;;;;63.50;51.25;;;;;5.96;100.00;102102.66;5110301;27;47051;-76
2023/02/16 02:33:04;;;;;;;;;61.00;50.50;;;;;5.99;100.00;102109.50;5144135;27;45381;-75
2023/02/16 02:35:57;;;;;;;;;65.50;52.00;;;;;5.94;100.00;102108.03;5144131;27;45296;-76
2023/02/16 02:39:00;;;;;;;;;64.75;52.00;;;;;6.01;100.00;102116.34;5143788;27;45264;-76
2023/02/16 02:44:28;;;;;;;;;60.25;51.00;;;;;6.08;100.00;102108.03;5143588;27;45407;-76
2023/02/16 02:46:54;;;;;;;;;60.25;49.75;;;;;6.06;100.00;102101.06;5124967;27;45345;-76
2023/02/16 02:49:20;;;;;;;;;56.50;49.00;;;;;6.06;100.00;102109.00;5121807;27;45329;-76
2023/02/16 02:51:46;;;;;;;;;50.00;41.25;;;;;6.06;100.00;102111.63;5124513;27;45949;-76
2023/02/16 03:03:15;;;;;;;;;51.75;42.50;;;;;6.10;100.00;102091.13;5143613;27;45358;-76
2023/02/16 03:05:49;;;;;;;;;54.25;43.00;;;;;6.10;100.00;102101.69;5124788;27;47031;-76
2023/02/16 03:08:21;;;;;;;;;43.25;39.00;;;;;6.16;100.00;102101.25;5143667;27;45343;-76
2023/02/16 03:13:58;;;;;;;;;40.00;38.25;;;;;6.16;100.00;102087.19;5141557;27;45331;-76
2023/02/16 03:16:34;;;;;;;;;39.25;37.25;;;;;6.15;100.00;102096.91;5124605;27;47007;-77
2023/02/16 03:30:30;;;;;;;;;39.50;36.75;;;;;6.38;100.00;102089.09;5143184;27;45751;-75
2023/02/16 03:32:55;;;;;;;;;42.75;38.75;;;;;6.42;100.00;102095.00;5124667;27;45426;-76
2023/02/16 03:35:21;;;;;;;;;44.75;39.75;;;;;6.50;100.00;102094.44;5143214;27;45156;-75
2023/02/16 03:37:46;;;;;;;;;44.50;39.25;;;;;6.60;100.00;102094.59;5143035;27;46339;-76
2023/02/16 03:40:31;;;;;;;;;53.00;41.75;;;;;6.65;100.00;102093.28;5143140;27;45336;-75
2023/02/16 03:43:00;;;;;;;;;49.50;41.75;;;;;6.63;100.00;102091.72;5142900;27;45474;-76
2023/02/16 03:45:26;;;;;;;;;51.00;41.50;;;;;6.74;100.00;102098.84;5143157;27;45321;-76
2023/02/16 03:47:52;;;;;;;;;40.00;37.00;;;;;6.84;100.00;102096.34;5124118;27;48481;-75
2023/02/16 03:50:17;;;;;;;;;46.25;39.75;;;;;6.90;100.00;102098.53;5143011;27;45510;-75
2023/02/16 03:52:43;;;;;;;;;49.25;40.75;;;;;6.95;100.00;102101.69;5143094;27;45300;-76
2023/02/16 03:55:08;;;;;;;;;48.25;39.25;;;;;6.97;100.00;102086.53;5143082;27;45370;-76
2023/02/16 03:57:33;;;;;;;;;39.00;37.00;;;;;7.01;100.00;102084.50;5142707;27;46268;-75
2023/02/16 03:59:59;;;;;;;;;51.75;43.00;;;;;7.05;100.00;102093.88;5123850;27;45615;-75
2023/02/16 04:02:26;;;;;;;;;42.25;37.50;;;;;7.08;100.00;102101.56;5142917;27;45151;-76
2023/02/16 04:04:52;;;;;;;;;44.00;39.25;;;;;7.09;100.00;102105.88;5142932;27;45343;-76
2023/02/16 04:07:17;;;;;;;;;49.50;41.00;;;;;7.09;100.00;102095.31;5142387;27;46172;-75
2023/02/16 04:09:42;;;;;;;;;46.25;38.00;;;;;7.12;100.00;102091.63;5142917;27;45352;-75
2023/02/16 04:14:54;;;;;;;;;39.50;36.75;;;;;7.13;100.00;102102.06;5142240;27;45267;-76
2023/02/16 04:17:19;;;;;;;;;43.00;37.25;;;;;7.12;100.00;102102.19;5141970;27;46109;-76
2023/02/16 04:19:44;;;;;;;;;39.00;36.00;;;;;7.08;100.00;102101.56;5142769;27;45512;-75
2023/02/16 04:22:10;;;;;;;;;40.25;37.25;;;;;7.06;100.00;102106.97;5142380;27;45507;-76
2023/02/16 04:24:35;;;;;;;;;36.50;35.50;;;;;7.05;100.00;102113.22;5141790;27;45353;-76
2023/02/16 04:27:00;;;;;;;;;46.50;40.00;;;;;7.00;100.00;102112.72;5128224;27;45447;-75
2023/02/16 04:29:26;;;;;;;;;50.75;41.00;;;;;6.98;100.00;102113.81;5142170;27;45276;-75
2023/02/16 04:31:52;;;;;;;;;49.75;42.50;;;;;6.92;100.00;102115.94;5142296;27;45381;-76
2023/02/16 04:34:17;;;;;;;;;42.50;37.50;;;;;6.91;100.00;102114.28;5142386;27;45387;-75
2023/02/16 04:36:42;;;;;;;;;46.00;39.50;;;;;6.85;100.00;102111.25;5141926;27;46117;-76
2023/02/16 04:39:08;;;;;;;;;37.25;28.50;;;;;6.82;100.00;102117.59;5142379;27;45300;-75
2023/02/16 04:41:33;;;;;;;;;41.00;38.00;;;;;6.75;100.00;102103.16;5142093;27;45504;-76
2023/02/16 04:43:58;;;;;;;;;40.75;36.25;;;;;6.67;100.00;102099.31;5142009;27;45412;-76
2023/02/16 04:46:24;;;;;;;;;45.50;39.00;;;;;6.67;100.00;102103.72;5141917;27;46128;-76
2023/02/16 04:48:49;;;;;;;;;38.25;36.00;;;;;6.63;100.00;102100.50;5142210;27;45330;-76
2023/02/16 04:51:15;;;;;;;;;41.00;37.75;;;;;6.56;100.00;102096.63;5123295;27;45358;-76
2023/02/16 04:53:40;;;;;;;;;38.50;37.00;;;;;6.51;100.00;102102.25;5123351;27;46923;-76
2023/02/16 04:56:09;;;;;;;;;46.25;40.75;;;;;6.44;100.00;102088.63;5141736;27;46028;-76
2023/02/16 04:58:35;;;;;;;;;45.50;38.00;;;;;6.43;100.00;102096.69;5141590;27;45305;-76
2023/02/16 05:01:00;;;;;;;;;42.00;38.25;;;;;6.42;100.00;102106.41;5141660;27;45357;-76
2023/02/16 05:03:26;;;;;;;;;44.25;36.50;;;;;6.38;100.00;102088.28;5123497;27;46133;-76
2023/02/16 05:05:51;;;;;;;;;43.00;38.25;;;;;6.36;100.00;102091.03;5141455;27;45302;-76
2023/02/16 05:08:16;;;;;;;;;40.75;38.00;;;;;6.36;100.00;102090.16;5141920;27;45228;-76
2023/02/16 05:10:42;;;;;;;;;34.50;32.00;;;;;6.33;100.00;102096.53;5122874;27;45422;-76
2023/02/16 05:15:53;;;;;;;;;40.00;36.00;;;;;6.27;100.00;102084.63;5141544;27;45274;-76
2023/02/16 05:18:18;;;;;;;;;41.50;38.00;;;;;6.28;100.00;102088.94;5141600;27;45334;-76
2023/02/16 05:23:28;;;;;;;;;33.50;32.25;;;;;6.27;100.00;102089.91;5141445;27;45420;-76
2023/02/16 05:25:53;;;;;;;;;38.75;36.00;;;;;6.26;100.00;102090.00;5141348;27;45325;-76
2023/02/16 05:28:18;;;;;;;;;39.25;35.50;;;;;6.21;100.00;102082.44;5105126;27;45358;-75
2023/02/16 05:30:44;;;;;;;;;44.25;39.25;;;;;6.21;100.00;102085.06;5141821;27;45208;-76
2023/02/16 05:33:09;;;;;;;;;40.00;36.50;;;;;6.19;100.00;102092.25;5141409;27;45293;-76
2023/02/16 05:35:34;;;;;;;;;42.00;37.25;;;;;6.16;100.00;102101.25;5141356;27;45389;-76
2023/02/16 05:38:00;;;;;;;;;45.50;37.50;;;;;6.15;100.00;102094.28;5140214;27;45262;-75
2023/02/16 05:40:25;;;;;;;;;46.50;38.25;;;;;6.14;100.00;102091.75;5141421;27;45452;-76
2023/02/16 05:42:54;;;;;;;;;36.50;34.50;;;;;6.14;100.00;102092.56;5140824;27;45308;-76
2023/02/16 05:45:20;;;;;;;;;33.00;31.25;;;;;6.17;100.00;102092.34;5140893;27;45408;-76
2023/02/16 05:47:45;;;;;;;;;52.00;42.00;;;;;6.13;100.00;102093.53;5141198;27;45868;-76
2023/02/16 05:50:11;;;;;;;;;44.25;39.00;;;;;6.16;100.00;102095.09;5141227;27;45388;-76
2023/02/16 05:52:36;;;;;;;;;45.50;37.75;;;;;6.17;100.00;102102.09;5141263;27;45235;-76
2023/02/16 05:55:02;;;;;;;;;34.75;32.25;;;;;6.22;100.00;102092.03;5122132;27;48306;-76
2023/02/16 05:57:27;;;;;;;;;40.50;35.75;;;;;6.19;100.00;102095.75;5127152;27;45307;-76
2023/02/16 05:59:53;;;;;;;;;39.00;35.25;;;;;6.21;100.00;102110.63;5134849;27;45554;-76
2023/02/16 06:02:18;;;;;;;;;38.50;36.00;;;;;6.22;100.00;102107.88;5137699;27;45313;-76
2023/02/16 06:04:43;;;;;;;;;39.75;35.75;;;;;6.24;100.00;102102.47;5127423;27;45263;-76
2023/02/16 06:07:09;;;;;;;;;42.25;36.25;;;;;6.22;100.00;102099.94;5140820;27;45476;-75
2023/02/16 06:09:34;;;;;;;;;42.75;38.00;;;;;6.23;100.00;102106.06;5140948;27;45335;-76
2023/02/16 06:11:59;;;;;;;;;39.75;35.50;;;;;6.23;100.00;102112.22;5140867;27;45337;-76
2023/02/16 06:14:25;;;;;;;;;44.75;39.25;;;;;6.23;100.00;102108.72;5140462;27;46283;-75
2023/02/16 06:16:50;;;;;;;;;38.00;36.25;;;;;6.24;100.00;102107.75;5139486;27;45341;-75
2023/02/16 06:19:17;;;;;;;;;39.25;35.50;;;;;6.25;100.00;102106.78;5140342;27;45222;-76
2023/02/16 06:21:43;;;;;;;;;41.75;38.75;;;;;6.24;100.00;102102.47;5122051;27;45544;-76
2023/02/16 06:24:10;;;;;;;;;38.50;35.75;;;;;6.29;100.00;102101.19;5135547;27;48435;-76
2023/02/16 06:26:36;;;;;;;;;38.50;35.25;;;;;6.30;100.00;102112.59;5132668;27;45435;-76
2023/02/16 06:29:02;;;;;;;;;40.00;36.50;;;;;6.30;100.00;102100.25;5140612;27;45349;-76
2023/02/16 06:31:28;;;;;;;;;40.25;36.00;;;;;6.40;100.00;102110.97;5139795;27;46602;-75
2023/02/16 06:33:55;;;;;;;;;45.75;38.00;;;;;6.43;100.00;102116.03;5139955;27;46313;-75
2023/02/16 06:36:21;;;;;;;;;37.75;36.00;;;;;6.47;100.00;102111.38;5140282;27;45232;-76
2023/02/16 06:38:46;;;;;;;;;43.75;38.75;;;;;6.54;100.00;102124.94;5140403;27;45255;-76
2023/02/16 06:41:12;;;;;;;;;46.00;36.75;;;;;6.57;100.00;102125.56;5140209;27;45478;-75
2023/02/16 06:43:37;;;;;;;;;40.75;36.25;;;;;6.67;100.00;102127.50;5139789;27;45295;-76
2023/02/16 06:46:03;;;;;;;;;43.00;38.00;;;;;6.75;100.00;102132.22;5139954;27;45301;-76
2023/02/16 06:48:29;;;;;;;;;43.50;38.00;;;;;6.82;100.00;102126.38;5142132;27;45311;-76
2023/02/16 06:50:54;;;;;;;;;42.00;38.00;;;;;6.87;100.00;102125.19;5143940;27;45409;-76
2023/02/16 06:53:19;;;;;;;;;41.75;36.75;;;;;6.91;100.00;102130.13;5143343;27;46025;-76
2023/02/16 06:55:45;;;;;;;;;42.50;37.50;;;;;7.00;100.00;102133.88;5143892;27;45332;-76
2023/02/16 06:58:11;;;;;;;;;42.50;38.25;;;;;7.04;100.00;102134.50;5143580;27;45319;-75
2023/02/16 07:00:36;;;;;;;;;42.00;36.00;;;;;7.10;100.00;102138.47;5143938;27;45319;-75
2023/02/16 07:03:02;;;;;;;;;49.75;41.50;;;;;7.17;100.00;102144.97;5143591;27;46045;-76
2023/02/16 07:05:27;;;;;;;;;40.75;37.50;;;;;7.19;100.00;102157.09;5143803;27;45317;-76
2023/02/16 07:07:52;;;;;;;;;43.25;38.00;;;;;7.28;100.00;102154.75;5143663;27;45263;-76
2023/02/16 07:10:18;;;;;;;;;45.00;37.75;;;;;7.37;100.00;102156.69;5143703;27;45968;-76
2023/02/16 07:12:45;;;;;;;;;45.00;38.00;;;;;7.45;100.00;102167.50;5141447;27;45384;-76
2023/02/16 07:15:10;;;;;;;;;50.25;41.25;;;;;7.52;100.00;102161.75;5143439;27;45294;-76
2023/02/16 07:17:35;;;;;;;;;45.00;40.00;;;;;7.56;100.00;102164.03;5142885;27;45565;-77
2023/02/16 07:20:01;;;;;;;;;42.75;37.25;;;;;7.65;100.00;102161.63;5143610;27;45499;-76
2023/02/16 07:22:26;;;;;;;;;47.00;40.25;;;;;7.69;100.00;102169.22;5123841;27;47232;-76
2023/02/16 07:24:51;;;;;;;;;44.50;39.00;;;;;7.73;100.00;102167.19;5124670;27;45263;-76
2023/02/16 07:27:17;;;;;;;;;47.50;38.75;;;;;7.78;100.00;102161.53;5143360;27;45284;-78
2023/02/16 07:29:43;;;;;;;;;52.00;43.50;;;;;7.80;100.00;102159.56;5141676;27;45835;-76
2023/02/16 07:32:08;;;;;;;;;44.25;39.75;;;;;7.94;100.00;102167.25;5143051;27;46079;-76
2023/02/16 07:34:34;;;;;;;;;50.50;40.00;;;;;7.98;100.00;102165.22;5143230;27;45264;-78
2023/02/16 07:36:59;;;;;;;;;47.75;41.00;;;;;8.01;100.00;102172.94;5143335;27;45430;-77
2023/02/16 07:39:25;;;;;;;;;46.50;39.50;;;;;8.04;100.00;102174.47;5143069;27;45429;-76
2023/02/16 07:41:50;;;;;;;;;41.00;36.00;;;;;8.12;100.00;102173.88;5143113;27;45385;-76
2023/02/16 07:44:15;;;;;;;;;41.75;38.00;;;;;8.16;100.00;102176.16;5142895;27;45307;-77
2023/02/16 07:46:41;;;;;;;;;54.00;43.00;;;;;8.23;100.00;102175.69;5143087;27;45387;-76
2023/02/16 07:49:06;;;;;;;;;52.00;41.50;;;;;8.30;100.00;102182.16;5143181;27;45271;-77
2023/02/16 07:51:31;;;;;;;;;47.50;41.00;;;;;8.41;100.00;102176.00;5142944;27;46230;-77
2023/02/16 07:53:59;;;;;;;;;51.25;44.00;;;;;8.50;100.00;102180.53;5124450;27;45359;-77
2023/02/16 07:56:30;;;;;;;;;46.00;38.75;;;;;8.53;100.00;102176.81;5142753;27;45299;-77
2023/02/16 07:58:58;;;;;;;;;44.50;38.75;;;;;8.62;100.00;102188.50;5142191;27;45371;-77
2023/02/16 08:01:23;;;;;;;;;43.00;37.00;;;;;8.67;100.00;102189.78;5141949;27;45332;-77
2023/02/16 08:03:49;;;;;;;;;50.75;42.50;;;;;8.75;100.00;102196.28;5142812;27;45307;-77
2023/02/16 08:06:15;;;;;;;;;48.00;40.00;;;;;8.80;100.00;102194.09;5123924;27;45365;-76
2023/02/16 08:08:41;;;;;;;;;48.50;39.50;;;;;8.88;100.00;102201.41;5142749;27;45269;-78
2023/02/16 08:11:19;;;;;;;;;46.00;38.25;;;;;8.91;100.00;102206.44;5141681;27;45400;-78
2023/02/16 08:13:44;;;;;;;;;41.25;37.25;;;;;8.95;100.00;102208.72;5142033;27;45348;-77
2023/02/16 08:16:22;;;;;;;;;44.25;37.50;;;;;9.03;100.00;102209.88;5123789;27;45318;-77
2023/02/16 08:18:49;;;;;;;;;40.75;37.00;;;;;9.04;100.00;102196.50;5142504;27;45163;-77
2023/02/16 08:21:20;;;;;;;;;49.00;40.50;;;;;9.12;100.00;102195.88;5142181;27;47307;-77
2023/02/16 08:23:59;;;;;;;;;50.50;42.75;;;;;9.17;100.00;102196.34;5141949;27;45319;-77
2023/02/16 08:26:30;;;;;;;;;49.00;38.00;;;;;9.17;100.00;102180.41;5130814;27;45304;-77
2023/02/16 08:28:56;;;;;;;;;44.25;39.00;;;;;9.31;100.00;102196.97;5141842;27;45300;-78
2023/02/16 08:31:25;;;;;;;;;49.75;38.50;;;;;9.36;100.00;102196.59;5123651;27;48603;-78
2023/02/16 08:33:52;;;;;;;;;39.00;35.25;;;;;9.38;100.00;102203.44;5123420;27;45353;-78
2023/02/16 08:36:22;;;;;;;;;41.75;36.00;;;;;9.45;100.00;102198.44;5142432;27;45313;-78
2023/02/16 08:38:49;;;;;;;;;50.00;41.00;;;;;9.47;100.00;102194.72;5123274;27;46341;-78
2023/02/16 08:41:17;;;;;;;;;43.25;37.00;;;;;9.48;100.00;102184.91;5142086;27;46152;-77
2023/02/16 08:43:42;;;;;;;;;48.75;37.75;;;;;9.49;100.00;102188.41;5141596;27;45317;-77
2023/02/16 08:46:07;;;;;;;;;42.75;36.25;;;;;9.51;100.00;102189.09;5123613;27;45358;-78
2023/02/16 08:48:34;;;;;;;;;45.00;36.50;;;;;9.52;100.00;102193.47;5142010;27;45539;-77
2023/02/16 08:51:00;;;;;;;;;45.00;39.50;;;;;9.55;100.00;102194.03;5141937;27;45328;-77
2023/02/16 08:53:30;;;;;;;;;47.00;39.00;;;;;9.59;100.00;102179.53;5141715;27;45336;-77
2023/02/16 08:55:57;;;;;;;;;45.50;37.00;;;;;9.70;100.00;102186.56;5142076;27;45306;-77
2023/02/16 08:58:23;;;;;;;;;43.00;36.25;;;;;9.75;100.00;102185.34;5141441;27;45310;-78
2023/02/16 09:00:49;;;;;;;;;41.00;36.50;;;;;9.76;100.00;102181.69;5141531;27;45327;-78
2023/02/16 09:03:17;;;;;;;;;44.75;38.50;;;;;9.88;100.00;102187.75;5122960;27;45309;-78
2023/02/16 09:05:44;;;;;;;;;46.25;38.75;;;;;9.99;100.00;102190.31;5121258;27;45264;-78
2023/02/16 09:08:09;;;;;;;;;44.75;36.50;;;;;10.07;100.00;102197.59;5141877;27;45398;-77
2023/02/16 09:10:34;;;;;;;;;48.75;40.50;;;;;10.09;100.00;102199.16;5141373;27;46032;-77
2023/02/16 09:13:00;;;;;;;;;48.00;40.75;;;;;10.17;100.00;102208.25;5122758;27;45903;-78
2023/02/16 09:15:26;;;;;;;;;47.75;39.75;;;;;10.20;100.00;102200.00;5140258;27;45308;-78
2023/02/16 09:17:51;;;;;;;;;48.25;39.75;;;;;10.19;100.00;102185.06;5140803;27;45388;-77
2023/02/16 09:20:19;;;;;;;;;46.00;37.00;;;;;10.27;100.00;102195.84;5140749;27;45516;-78
2023/02/16 09:22:45;;;;;;;;;44.00;37.25;;;;;10.34;100.00;102209.44;5141777;27;45462;-79
2023/02/16 09:25:11;;;;;;;;;47.00;40.00;;;;;10.32;100.00;102204.25;5120158;27;45511;-78
2023/02/16 09:27:36;;;;;;;;;37.50;34.25;;;;;10.29;100.00;102206.31;5141198;27;45296;-78
2023/02/16 09:30:04;;;;;;;;;49.75;42.25;;;;;10.29;100.00;102217.81;5141193;27;45241;-77
2023/02/16 09:32:30;;;;;;;;;51.25;40.75;;;;;10.30;100.00;102219.47;5139742;27;45929;-78
2023/02/16 09:34:56;;;;;;;;;46.50;38.75;;;;;10.27;100.00;102225.09;5122437;27;45335;-78
2023/02/16 09:37:21;;;;;;;;;50.25;41.25;;;;;10.30;100.00;102227.44;5141290;27;45389;-78
2023/02/16 09:39:46;;;;;;;;;43.50;38.00;;;;;10.32;100.00;102230.81;5122182;27;47309;-78
2023/02/16 09:42:29;;;;;;;;;46.00;39.50;;;;;10.39;100.00;102217.84;5141518;27;45473;-77
2023/02/16 09:45:04;;;;;;;;;52.50;43.75;;;;;10.48;100.00;102208.22;5140875;27;45369;-78
2023/02/16 09:47:32;;;;;;;;;50.00;41.50;;;;;10.59;100.00;102217.88;5105210;27;45280;-78
2023/02/16 09:50:02;;;;;;;;;44.75;38.25;;;;;10.66;100.00;102208.41;5141020;27;45428;-78
2023/02/16 09:52:39;;;;;;;;;48.00;40.25;;;;;10.76;100.00;102215.53;5141233;27;45342;-78
2023/02/16 09:55:12;;;;;;;;;45.00;37.50;;;;;10.85;100.00;102217.34;5141046;27;45242;-78
2023/02/16 09:57:46;;;;;;;;;50.75;43.00;;;;;10.96;100.00;102211.88;5121724;27;46275;-78
2023/02/16 10:00:15;;;;;;;;;46.00;39.00;;;;;11.04;100.00;102197.06;5141144;27;46128;-78
2023/02/16 10:03:09;;;;;;;;;49.75;41.75;;;;;11.15;100.00;102206.69;5140826;27;45252;-78
2023/02/16 10:05:46;;;;;;;;;53.00;44.25;;;;;11.23;100.00;102199.66;5122584;27;45481;-77
2023/02/16 10:08:23;;;;;;;;;49.75;41.75;;;;;11.34;100.00;102201.34;5128779;27;45314;-78
2023/02/16 10:11:00;;;;;;;;;48.00;40.00;;;;;11.44;100.00;102219.94;5140634;27;45601;-78
2023/02/16 10:13:41;;;;;;;;;50.50;41.00;;;;;11.49;100.00;102214.19;5140781;27;45435;-77
2023/02/16 10:16:13;;;;;;;;;46.25;39.75;;;;;11.54;100.00;102216.41;5140699;27;45260;-77
2023/02/16 10:18:48;;;;;;;;;50.50;40.75;;;;;11.61;100.00;102212.19;5139034;27;46085;-78
2023/02/16 10:21:18;;;;;;;;;55.00;43.75;;;;;11.65;100.00;102212.75;5140723;27;45514;-77
2023/02/16 10:23:51;;;;;;;;;49.25;40.50;;;;;11.71;100.00;102212.19;5124152;27;45697;-77
2023/02/16 10:26:29;;;;;;;;;48.75;40.00;;;;;11.82;100.00;102213.84;5144448;27;45473;-77
2023/02/16 10:28:59;;;;;;;;;50.00;41.50;;;;;11.91;100.00;102204.13;5143871;27;45478;-78
2023/02/16 10:31:43;;;;;;;;;48.25;39.75;;;;;12.03;100.00;102215.41;5144227;27;45284;-77
2023/02/16 10:34:30;;;;;;;;;53.25;43.50;;;;;12.12;100.00;102206.53;5131950;27;45302;-78
2023/02/16 10:37:38;;;;;;;;;49.75;41.50;;;;;12.27;100.00;102217.53;5144670;27;45386;-77
2023/02/16 10:40:56;;;;;;;;;45.75;39.50;;;;;12.39;100.00;102214.69;5139606;27;45536;-77
2023/02/16 10:43:43;;;;;;;;;44.00;38.50;;;;;12.47;100.00;102209.44;5138130;27;45460;-77
2023/02/16 10:46:21;;;;;;;;;45.00;38.00;;;;;12.53;100.00;102219.50;5132047;27;45402;-77
2023/02/16 10:48:50;;;;;;;;;46.00;38.50;;;;;12.53;100.00;102210.66;5143981;27;45401;-78
2023/02/16 10:51:17;;;;;;;;;50.50;40.25;;;;;12.55;100.00;102203.34;5144025;27;45530;-77
2023/02/16 10:53:49;;;;;;;;;48.00;40.50;;;;;12.61;100.00;102216.09;5143569;27;47080;-77
2023/02/16 10:56:51;;;;;;;;;50.00;41.00;;;;;12.66;100.00;102216.44;5144033;27;45452;-79
2023/02/16 10:59:25;;;;;;;;;47.50;38.50;;;;;12.70;100.00;102217.00;5126276;27;45547;-76
2023/02/16 11:01:58;;;;;;;;;48.50;41.00;;;;;12.75;100.00;102226.22;5134905;27;45541;-77
2023/02/16 11:04:32;;;;;;;;;50.50;42.00;;;;;12.84;100.00;102224.47;5125168;27;47179;-76
2023/02/16 11:07:19;;;;;;;;;51.75;40.50;;;;;12.90;100.00;102223.00;5143528;27;45386;-76
2023/02/16 11:09:48;;;;;;;;;52.25;42.75;;;;;12.97;100.00;102212.56;5143630;27;45439;-76
2023/02/16 11:12:27;;;;;;;;;56.00;45.25;;;;;12.99;100.00;102214.09;5143722;27;45425;-76
2023/02/16 11:15:19;;;;;;;;;53.75;44.25;;;;;13.07;100.00;102217.81;5143131;27;45373;-78
2023/02/16 11:17:58;;;;;;;;;49.25;42.00;;;;;13.16;100.00;102208.03;5143454;27;45396;-77
2023/02/16 11:20:29;;;;;;;;;54.75;45.00;;;;;13.09;100.00;102215.84;5143894;27;45320;-77
2023/02/16 11:23:20;;;;;;;;;50.75;40.75;;;;;13.03;100.00;102211.09;5142986;27;46122;-78
2023/02/16 11:26:14;;;;;;;;;51.50;41.75;;;;;13.02;100.00;102199.59;5142936;27;46024;-78
2023/02/16 11:28:50;;;;;;;;;51.00;42.75;;;;;13.03;100.00;102189.75;5130227;27;45303;-78
2023/02/16 11:31:31;;;;;;;;;52.00;42.50;;;;;13.03;100.00;102195.09;5143241;27;45245;-79
2023/02/16 11:34:04;;;;;;;;;46.25;39.50;;;;;13.10;100.00;102197.00;5142314;27;45359;-78
2023/02/16 11:36:42;;;;;;;;;45.00;37.50;;;;;13.16;100.00;102198.19;5123811;27;47672;-78
2023/02/16 11:39:24;;;;;;;;;47.50;40.50;;;;;13.24;100.00;102192.09;5143123;27;45346;-77
2023/02/16 11:41:54;;;;;;;;;46.00;37.75;;;;;13.38;100.00;102199.50;5125119;27;45366;-79
2023/02/16 11:44:45;;;;;;;;;40.25;33.00;;;;;13.49;100.00;102195.78;5142971;27;45243;-78
2023/02/16 11:47:36;;;;;;;;;45.25;36.25;;;;;13.58;100.00;102193.13;5142955;27;46286;-78
2023/02/16 11:50:20;;;;;;;;;45.00;38.00;;;;;13.71;100.00;102198.06;5142799;27;45506;-78
2023/02/16 11:52:48;;;;;;;;;48.00;40.00;;;;;13.92;100.00;102192.28;5124471;27;45298;-78
2023/02/16 11:55:32;;;;;;;;;42.67;36.00;;;;;14.07;100.00;102191.69;5142825;27;45724;-78
2023/02/16 11:58:12;;;;;;;;;39.00;35.50;;;;;14.15;100.00;102173.00;5142305;27;46092;-77
2023/02/16 12:00:43;;;;;;;;;43.75;38.00;;;;;14.18;100.00;102161.13;5124286;27;45290;-78
2023/02/16 12:03:23;;;;;;;;;40.33;34.67;;;;;14.29;100.00;102160.00;5124935;27;45446;-78
2023/02/16 12:06:13;;;;;;;;;39.67;34.33;;;;;14.37;100.00;102170.72;5142482;27;45378;-78
2023/02/16 12:08:47;;;;;;;;;41.00;35.33;;;;;14.38;100.00;102167.03;5142790;27;45674;-79
2023/02/16 12:11:37;;;;;;;;;38.67;35.00;;;;;14.37;100.00;102155.50;5142357;27;45476;-77